sensor_id;sensor_type;location;lat;lon;timestamp;P1;durP1;ratioP1;P2;durP2;ratioP2
19026;SDS011;9646;52.034;5.554;2022-11-11T00:01:53;12.18;;;6.38;;
19026;SDS011;9646;52.034;5.554;2022-11-11T00:04:20;10.20;;;5.13;;
19026;SDS011;9646;52.034;5.554;2022-11-11T00:06:48;9.80;;;5.78;;
19026;SDS011;9646;52.034;5.554;2022-11-11T00:09:17;10.10;;;4.32;;
19026;SDS011;9646;52.034;5.554;2022-11-11T00:11:44;11.13;;;5.90;;
19026;SDS011;9646;52.034;5.554;2022-11-11T00:14:11;11.68;;;6.45;;
19026;SDS011;9646;52.034;5.554;2022-11-11T00:16:38;9.73;;;5.72;;
19026;SDS011;9646;52.034;5.554;2022-11-11T00:19:22;9.80;;;6.32;;
19026;SDS011;9646;52.034;5.554;2022-11-11T00:22:10;10.60;;;7.18;;
19026;SDS011;9646;52.034;5.554;2022-11-11T00:25:03;15.43;;;7.00;;
19026;SDS011;9646;52.034;5.554;2022-11-11T00:27:33;12.68;;;6.45;;
19026;SDS011;9646;52.034;5.554;2022-11-11T00:30:01;12.70;;;6.72;;
19026;SDS011;9646;52.034;5.554;2022-11-11T00:32:28;14.57;;;8.27;;
19026;SDS011;9646;52.034;5.554;2022-11-11T00:34:58;12.00;;;7.15;;
19026;SDS011;9646;52.034;5.554;2022-11-11T00:37:45;10.57;;;7.32;;
19026;SDS011;9646;52.034;5.554;2022-11-11T00:40:13;12.63;;;8.10;;
19026;SDS011;9646;52.034;5.554;2022-11-11T00:42:40;13.38;;;8.70;;
19026;SDS011;9646;52.034;5.554;2022-11-11T00:45:08;13.95;;;9.43;;
19026;SDS011;9646;52.034;5.554;2022-11-11T00:47:35;16.27;;;9.23;;
19026;SDS011;9646;52.034;5.554;2022-11-11T00:50:23;15.88;;;9.55;;
19026;SDS011;9646;52.034;5.554;2022-11-11T00:53:10;13.25;;;10.10;;
19026;SDS011;9646;52.034;5.554;2022-11-11T00:55:38;17.52;;;10.60;;
19026;SDS011;9646;52.034;5.554;2022-11-11T00:58:05;13.63;;;10.02;;
19026;SDS011;9646;52.034;5.554;2022-11-11T01:00:32;14.10;;;10.32;;
19026;SDS011;9646;52.034;5.554;2022-11-11T01:02:59;16.67;;;10.27;;
19026;SDS011;9646;52.034;5.554;2022-11-11T01:05:26;16.13;;;10.90;;
19026;SDS011;9646;52.034;5.554;2022-11-11T01:07:53;15.40;;;11.43;;
19026;SDS011;9646;52.034;5.554;2022-11-11T01:10:22;15.77;;;10.27;;
19026;SDS011;9646;52.034;5.554;2022-11-11T01:13:12;15.73;;;10.65;;
19026;SDS011;9646;52.034;5.554;2022-11-11T01:15:39;14.63;;;11.23;;
19026;SDS011;9646;52.034;5.554;2022-11-11T01:18:08;16.85;;;12.45;;
19026;SDS011;9646;52.034;5.554;2022-11-11T01:20:36;20.67;;;9.82;;
19026;SDS011;9646;52.034;5.554;2022-11-11T01:23:03;15.68;;;11.52;;
19026;SDS011;9646;52.034;5.554;2022-11-11T01:25:33;14.65;;;10.60;;
19026;SDS011;9646;52.034;5.554;2022-11-11T01:28:00;15.48;;;10.98;;
19026;SDS011;9646;52.034;5.554;2022-11-11T01:30:27;19.08;;;10.93;;
19026;SDS011;9646;52.034;5.554;2022-11-11T01:32:54;18.15;;;12.85;;
19026;SDS011;9646;52.034;5.554;2022-11-11T01:35:21;18.52;;;11.95;;
19026;SDS011;9646;52.034;5.554;2022-11-11T01:37:48;16.05;;;10.55;;
19026;SDS011;9646;52.034;5.554;2022-11-11T01:40:16;20.10;;;13.23;;
19026;SDS011;9646;52.034;5.554;2022-11-11T01:42:51;18.17;;;12.73;;
19026;SDS011;9646;52.034;5.554;2022-11-11T01:48:05;17.17;;;13.30;;
19026;SDS011;9646;52.034;5.554;2022-11-11T01:50:52;17.42;;;12.02;;
19026;SDS011;9646;52.034;5.554;2022-11-11T01:53:19;16.42;;;11.35;;
19026;SDS011;9646;52.034;5.554;2022-11-11T01:55:46;20.48;;;13.15;;
19026;SDS011;9646;52.034;5.554;2022-11-11T01:58:15;21.33;;;13.18;;
19026;SDS011;9646;52.034;5.554;2022-11-11T02:00:43;18.05;;;11.77;;
19026;SDS011;9646;52.034;5.554;2022-11-11T02:03:10;18.88;;;13.55;;
19026;SDS011;9646;52.034;5.554;2022-11-11T02:05:39;16.60;;;13.20;;
19026;SDS011;9646;52.034;5.554;2022-11-11T02:08:10;17.02;;;12.48;;
19026;SDS011;9646;52.034;5.554;2022-11-11T02:10:39;18.88;;;12.40;;
19026;SDS011;9646;52.034;5.554;2022-11-11T02:13:08;17.50;;;12.35;;
19026;SDS011;9646;52.034;5.554;2022-11-11T02:15:57;15.40;;;11.18;;
19026;SDS011;9646;52.034;5.554;2022-11-11T02:18:24;19.45;;;12.98;;
19026;SDS011;9646;52.034;5.554;2022-11-11T02:20:52;19.83;;;12.38;;
19026;SDS011;9646;52.034;5.554;2022-11-11T02:23:21;18.50;;;12.88;;
19026;SDS011;9646;52.034;5.554;2022-11-11T02:25:51;22.25;;;13.10;;
19026;SDS011;9646;52.034;5.554;2022-11-11T02:28:19;18.15;;;13.15;;
19026;SDS011;9646;52.034;5.554;2022-11-11T02:30:46;14.93;;;12.18;;
19026;SDS011;9646;52.034;5.554;2022-11-11T02:33:13;17.85;;;12.45;;
19026;SDS011;9646;52.034;5.554;2022-11-11T02:35:41;17.05;;;10.48;;
19026;SDS011;9646;52.034;5.554;2022-11-11T02:38:09;16.08;;;11.25;;
19026;SDS011;9646;52.034;5.554;2022-11-11T02:40:37;19.13;;;12.18;;
19026;SDS011;9646;52.034;5.554;2022-11-11T02:43:27;19.02;;;12.75;;
19026;SDS011;9646;52.034;5.554;2022-11-11T02:45:55;21.17;;;12.85;;
19026;SDS011;9646;52.034;5.554;2022-11-11T02:48:22;16.13;;;11.00;;
19026;SDS011;9646;52.034;5.554;2022-11-11T02:50:49;20.52;;;12.57;;
19026;SDS011;9646;52.034;5.554;2022-11-11T02:53:16;17.02;;;11.60;;
19026;SDS011;9646;52.034;5.554;2022-11-11T02:55:43;14.55;;;10.55;;
19026;SDS011;9646;52.034;5.554;2022-11-11T02:58:10;20.33;;;10.95;;
19026;SDS011;9646;52.034;5.554;2022-11-11T03:00:40;17.05;;;11.35;;
19026;SDS011;9646;52.034;5.554;2022-11-11T03:03:07;14.48;;;11.05;;
19026;SDS011;9646;52.034;5.554;2022-11-11T03:05:34;16.48;;;11.77;;
19026;SDS011;9646;52.034;5.554;2022-11-11T03:08:01;16.92;;;11.13;;
19026;SDS011;9646;52.034;5.554;2022-11-11T03:10:28;14.25;;;9.70;;
19026;SDS011;9646;52.034;5.554;2022-11-11T03:12:55;15.20;;;11.27;;
19026;SDS011;9646;52.034;5.554;2022-11-11T03:15:22;17.55;;;10.93;;
19026;SDS011;9646;52.034;5.554;2022-11-11T03:17:51;12.77;;;8.85;;
19026;SDS011;9646;52.034;5.554;2022-11-11T03:20:18;15.25;;;11.20;;
19026;SDS011;9646;52.034;5.554;2022-11-11T03:23:04;17.23;;;11.60;;
19026;SDS011;9646;52.034;5.554;2022-11-11T03:25:31;13.32;;;9.75;;
19026;SDS011;9646;52.034;5.554;2022-11-11T03:28:04;17.98;;;11.50;;
19026;SDS011;9646;52.034;5.554;2022-11-11T03:30:31;15.48;;;10.77;;
19026;SDS011;9646;52.034;5.554;2022-11-11T03:33:00;18.45;;;12.30;;
19026;SDS011;9646;52.034;5.554;2022-11-11T03:35:27;17.73;;;11.50;;
19026;SDS011;9646;52.034;5.554;2022-11-11T03:37:54;19.42;;;12.18;;
19026;SDS011;9646;52.034;5.554;2022-11-11T03:40:39;15.32;;;11.18;;
19026;SDS011;9646;52.034;5.554;2022-11-11T03:43:06;16.83;;;11.90;;
19026;SDS011;9646;52.034;5.554;2022-11-11T03:45:33;17.00;;;11.50;;
19026;SDS011;9646;52.034;5.554;2022-11-11T03:48:02;18.15;;;11.13;;
19026;SDS011;9646;52.034;5.554;2022-11-11T03:50:29;14.45;;;9.85;;
19026;SDS011;9646;52.034;5.554;2022-11-11T03:52:56;21.02;;;12.27;;
19026;SDS011;9646;52.034;5.554;2022-11-11T03:55:23;13.30;;;9.00;;
19026;SDS011;9646;52.034;5.554;2022-11-11T03:57:51;15.43;;;10.90;;
19026;SDS011;9646;52.034;5.554;2022-11-11T04:00:19;16.20;;;10.52;;
19026;SDS011;9646;52.034;5.554;2022-11-11T04:02:46;13.18;;;10.70;;
19026;SDS011;9646;52.034;5.554;2022-11-11T04:05:32;14.05;;;9.88;;
19026;SDS011;9646;52.034;5.554;2022-11-11T04:08:17;12.10;;;9.88;;
19026;SDS011;9646;52.034;5.554;2022-11-11T04:11:04;13.60;;;9.07;;
19026;SDS011;9646;52.034;5.554;2022-11-11T04:13:33;17.45;;;10.80;;
19026;SDS011;9646;52.034;5.554;2022-11-11T04:16:18;16.88;;;10.85;;
19026;SDS011;9646;52.034;5.554;2022-11-11T04:18:45;11.32;;;7.95;;
19026;SDS011;9646;52.034;5.554;2022-11-11T04:21:31;13.07;;;9.25;;
19026;SDS011;9646;52.034;5.554;2022-11-11T04:24:10;12.82;;;7.80;;
19026;SDS011;9646;52.034;5.554;2022-11-11T04:26:55;16.25;;;9.30;;
19026;SDS011;9646;52.034;5.554;2022-11-11T04:29:22;16.05;;;10.57;;
19026;SDS011;9646;52.034;5.554;2022-11-11T04:31:56;15.57;;;9.60;;
19026;SDS011;9646;52.034;5.554;2022-11-11T04:34:41;16.83;;;9.73;;
19026;SDS011;9646;52.034;5.554;2022-11-11T04:37:09;10.35;;;8.13;;
19026;SDS011;9646;52.034;5.554;2022-11-11T04:39:37;12.75;;;9.57;;
19026;SDS011;9646;52.034;5.554;2022-11-11T04:42:22;15.00;;;9.40;;
19026;SDS011;9646;52.034;5.554;2022-11-11T04:44:49;14.98;;;8.73;;
19026;SDS011;9646;52.034;5.554;2022-11-11T04:47:34;13.23;;;7.90;;
19026;SDS011;9646;52.034;5.554;2022-11-11T04:50:01;13.95;;;8.80;;
19026;SDS011;9646;52.034;5.554;2022-11-11T04:52:29;11.45;;;7.20;;
19026;SDS011;9646;52.034;5.554;2022-11-11T04:54:57;10.43;;;6.68;;
19026;SDS011;9646;52.034;5.554;2022-11-11T04:57:42;11.02;;;7.72;;
19026;SDS011;9646;52.034;5.554;2022-11-11T05:00:10;12.05;;;7.90;;
19026;SDS011;9646;52.034;5.554;2022-11-11T05:02:38;14.48;;;8.85;;
19026;SDS011;9646;52.034;5.554;2022-11-11T05:05:23;13.75;;;8.98;;
19026;SDS011;9646;52.034;5.554;2022-11-11T05:07:52;10.32;;;7.68;;
19026;SDS011;9646;52.034;5.554;2022-11-11T05:10:36;14.07;;;8.35;;
19026;SDS011;9646;52.034;5.554;2022-11-11T05:13:04;13.10;;;8.90;;
19026;SDS011;9646;52.034;5.554;2022-11-11T05:15:49;12.90;;;7.43;;
19026;SDS011;9646;52.034;5.554;2022-11-11T05:18:33;12.88;;;9.60;;
19026;SDS011;9646;52.034;5.554;2022-11-11T05:21:19;15.73;;;8.77;;
19026;SDS011;9646;52.034;5.554;2022-11-11T05:23:48;12.50;;;8.73;;
19026;SDS011;9646;52.034;5.554;2022-11-11T05:26:33;12.98;;;8.50;;
19026;SDS011;9646;52.034;5.554;2022-11-11T05:29:00;11.88;;;7.05;;
19026;SDS011;9646;52.034;5.554;2022-11-11T05:31:28;14.25;;;8.68;;
19026;SDS011;9646;52.034;5.554;2022-11-11T05:33:55;11.85;;;8.82;;
19026;SDS011;9646;52.034;5.554;2022-11-11T05:36:22;15.15;;;8.77;;
19026;SDS011;9646;52.034;5.554;2022-11-11T05:38:51;13.07;;;8.45;;
19026;SDS011;9646;52.034;5.554;2022-11-11T05:41:18;10.32;;;7.32;;
19026;SDS011;9646;52.034;5.554;2022-11-11T05:43:45;13.15;;;8.55;;
19026;SDS011;9646;52.034;5.554;2022-11-11T05:46:12;12.73;;;8.15;;
19026;SDS011;9646;52.034;5.554;2022-11-11T05:48:39;15.40;;;9.07;;
19026;SDS011;9646;52.034;5.554;2022-11-11T05:51:26;12.75;;;7.10;;
19026;SDS011;9646;52.034;5.554;2022-11-11T05:53:55;12.07;;;8.27;;
19026;SDS011;9646;52.034;5.554;2022-11-11T05:56:23;12.63;;;7.90;;
19026;SDS011;9646;52.034;5.554;2022-11-11T05:58:50;10.90;;;7.38;;
19026;SDS011;9646;52.034;5.554;2022-11-11T06:01:17;11.25;;;6.70;;
19026;SDS011;9646;52.034;5.554;2022-11-11T06:03:44;9.95;;;6.60;;
19026;SDS011;9646;52.034;5.554;2022-11-11T06:06:12;11.77;;;7.68;;
19026;SDS011;9646;52.034;5.554;2022-11-11T06:08:39;11.98;;;8.13;;
19026;SDS011;9646;52.034;5.554;2022-11-11T06:11:07;9.25;;;7.28;;
19026;SDS011;9646;52.034;5.554;2022-11-11T06:13:34;11.75;;;6.90;;
19026;SDS011;9646;52.034;5.554;2022-11-11T06:16:02;14.95;;;8.25;;
19026;SDS011;9646;52.034;5.554;2022-11-11T06:18:29;12.85;;;8.02;;
19026;SDS011;9646;52.034;5.554;2022-11-11T06:20:57;11.82;;;8.02;;
19026;SDS011;9646;52.034;5.554;2022-11-11T06:23:24;14.70;;;8.18;;
19026;SDS011;9646;52.034;5.554;2022-11-11T06:25:52;11.65;;;8.02;;
19026;SDS011;9646;52.034;5.554;2022-11-11T06:28:38;15.20;;;8.32;;
19026;SDS011;9646;52.034;5.554;2022-11-11T06:31:05;8.52;;;6.53;;
19026;SDS011;9646;52.034;5.554;2022-11-11T06:33:32;14.05;;;8.85;;
19026;SDS011;9646;52.034;5.554;2022-11-11T06:35:59;12.38;;;8.80;;
19026;SDS011;9646;52.034;5.554;2022-11-11T06:38:26;12.65;;;9.27;;
19026;SDS011;9646;52.034;5.554;2022-11-11T06:40:53;11.68;;;7.50;;
19026;SDS011;9646;52.034;5.554;2022-11-11T06:43:20;15.88;;;8.35;;
19026;SDS011;9646;52.034;5.554;2022-11-11T06:45:50;11.88;;;8.00;;
19026;SDS011;9646;52.034;5.554;2022-11-11T06:48:17;9.43;;;6.78;;
19026;SDS011;9646;52.034;5.554;2022-11-11T06:50:44;14.30;;;8.43;;
19026;SDS011;9646;52.034;5.554;2022-11-11T06:53:12;14.05;;;8.65;;
19026;SDS011;9646;52.034;5.554;2022-11-11T06:55:39;8.82;;;6.97;;
19026;SDS011;9646;52.034;5.554;2022-11-11T06:58:07;11.40;;;8.23;;
19026;SDS011;9646;52.034;5.554;2022-11-11T07:00:34;10.70;;;6.57;;
19026;SDS011;9646;52.034;5.554;2022-11-11T07:03:03;14.90;;;9.00;;
19026;SDS011;9646;52.034;5.554;2022-11-11T07:05:31;15.43;;;8.65;;
19026;SDS011;9646;52.034;5.554;2022-11-11T07:08:00;13.13;;;8.82;;
19026;SDS011;9646;52.034;5.554;2022-11-11T07:10:28;13.05;;;7.93;;
19026;SDS011;9646;52.034;5.554;2022-11-11T07:12:55;12.88;;;8.80;;
19026;SDS011;9646;52.034;5.554;2022-11-11T07:15:22;15.93;;;8.02;;
19026;SDS011;9646;52.034;5.554;2022-11-11T07:17:49;13.88;;;9.10;;
19026;SDS011;9646;52.034;5.554;2022-11-11T07:20:17;15.35;;;9.43;;
19026;SDS011;9646;52.034;5.554;2022-11-11T07:22:45;20.17;;;10.68;;
19026;SDS011;9646;52.034;5.554;2022-11-11T07:25:12;16.53;;;10.63;;
19026;SDS011;9646;52.034;5.554;2022-11-11T07:27:39;12.75;;;8.48;;
19026;SDS011;9646;52.034;5.554;2022-11-11T07:30:07;13.60;;;9.73;;
19026;SDS011;9646;52.034;5.554;2022-11-11T07:32:35;14.73;;;9.13;;
19026;SDS011;9646;52.034;5.554;2022-11-11T07:35:02;12.55;;;7.85;;
19026;SDS011;9646;52.034;5.554;2022-11-11T07:37:31;14.45;;;10.25;;
19026;SDS011;9646;52.034;5.554;2022-11-11T07:39:58;10.68;;;6.82;;
19026;SDS011;9646;52.034;5.554;2022-11-11T07:42:25;14.73;;;8.45;;
19026;SDS011;9646;52.034;5.554;2022-11-11T07:44:52;12.48;;;8.02;;
19026;SDS011;9646;52.034;5.554;2022-11-11T07:47:19;13.50;;;7.75;;
19026;SDS011;9646;52.034;5.554;2022-11-11T07:49:46;13.85;;;8.90;;
19026;SDS011;9646;52.034;5.554;2022-11-11T07:52:13;13.38;;;8.95;;
19026;SDS011;9646;52.034;5.554;2022-11-11T07:54:42;14.35;;;10.00;;
19026;SDS011;9646;52.034;5.554;2022-11-11T07:57:09;14.10;;;9.13;;
19026;SDS011;9646;52.034;5.554;2022-11-11T07:59:36;17.05;;;8.77;;
19026;SDS011;9646;52.034;5.554;2022-11-11T08:02:03;11.73;;;8.25;;
19026;SDS011;9646;52.034;5.554;2022-11-11T08:04:30;13.13;;;8.55;;
19026;SDS011;9646;52.034;5.554;2022-11-11T08:06:58;13.52;;;8.35;;
19026;SDS011;9646;52.034;5.554;2022-11-11T08:09:25;13.38;;;9.80;;
19026;SDS011;9646;52.034;5.554;2022-11-11T08:11:53;13.02;;;8.90;;
19026;SDS011;9646;52.034;5.554;2022-11-11T08:14:38;11.45;;;8.70;;
19026;SDS011;9646;52.034;5.554;2022-11-11T08:17:05;10.80;;;8.10;;
19026;SDS011;9646;52.034;5.554;2022-11-11T08:19:32;11.02;;;6.93;;
19026;SDS011;9646;52.034;5.554;2022-11-11T08:21:59;13.48;;;8.93;;
19026;SDS011;9646;52.034;5.554;2022-11-11T08:24:26;10.93;;;6.68;;
19026;SDS011;9646;52.034;5.554;2022-11-11T08:26:55;10.73;;;6.82;;
19026;SDS011;9646;52.034;5.554;2022-11-11T08:29:22;11.70;;;8.73;;
19026;SDS011;9646;52.034;5.554;2022-11-11T08:31:50;13.52;;;8.32;;
19026;SDS011;9646;52.034;5.554;2022-11-11T08:34:17;11.55;;;8.57;;
19026;SDS011;9646;52.034;5.554;2022-11-11T08:36:44;13.20;;;8.35;;
19026;SDS011;9646;52.034;5.554;2022-11-11T08:39:11;12.90;;;9.23;;
19026;SDS011;9646;52.034;5.554;2022-11-11T08:41:38;14.30;;;9.32;;
19026;SDS011;9646;52.034;5.554;2022-11-11T08:44:08;14.57;;;9.02;;
19026;SDS011;9646;52.034;5.554;2022-11-11T08:46:35;13.85;;;7.90;;
19026;SDS011;9646;52.034;5.554;2022-11-11T08:49:02;12.85;;;9.27;;
19026;SDS011;9646;52.034;5.554;2022-11-11T08:51:29;13.65;;;9.05;;
19026;SDS011;9646;52.034;5.554;2022-11-11T08:53:56;9.68;;;8.18;;
19026;SDS011;9646;52.034;5.554;2022-11-11T08:56:23;13.55;;;8.52;;
19026;SDS011;9646;52.034;5.554;2022-11-11T08:58:50;9.20;;;7.90;;
19026;SDS011;9646;52.034;5.554;2022-11-11T09:01:18;17.13;;;9.27;;
19026;SDS011;9646;52.034;5.554;2022-11-11T09:03:45;10.50;;;7.40;;
19026;SDS011;9646;52.034;5.554;2022-11-11T09:06:12;9.63;;;7.40;;
19026;SDS011;9646;52.034;5.554;2022-11-11T09:08:40;17.08;;;9.30;;
19026;SDS011;9646;52.034;5.554;2022-11-11T09:11:08;15.70;;;9.20;;
19026;SDS011;9646;52.034;5.554;2022-11-11T09:13:35;10.98;;;7.47;;
19026;SDS011;9646;52.034;5.554;2022-11-11T09:16:02;10.35;;;8.63;;
19026;SDS011;9646;52.034;5.554;2022-11-11T09:18:30;11.88;;;8.73;;
19026;SDS011;9646;52.034;5.554;2022-11-11T09:20:58;12.25;;;8.68;;
19026;SDS011;9646;52.034;5.554;2022-11-11T09:23:25;12.15;;;8.80;;
19026;SDS011;9646;52.034;5.554;2022-11-11T09:25:52;11.75;;;8.50;;
19026;SDS011;9646;52.034;5.554;2022-11-11T09:28:19;11.63;;;8.55;;
19026;SDS011;9646;52.034;5.554;2022-11-11T09:30:46;11.52;;;8.73;;
19026;SDS011;9646;52.034;5.554;2022-11-11T09:33:13;11.75;;;8.75;;
19026;SDS011;9646;52.034;5.554;2022-11-11T09:35:43;12.45;;;9.07;;
19026;SDS011;9646;52.034;5.554;2022-11-11T09:38:10;13.90;;;8.40;;
19026;SDS011;9646;52.034;5.554;2022-11-11T09:40:47;10.88;;;7.13;;
19026;SDS011;9646;52.034;5.554;2022-11-11T09:43:17;10.43;;;6.78;;
19026;SDS011;9646;52.034;5.554;2022-11-11T09:45:51;11.23;;;7.97;;
19026;SDS011;9646;52.034;5.554;2022-11-11T09:48:25;11.40;;;9.10;;
19026;SDS011;9646;52.034;5.554;2022-11-11T09:50:58;11.65;;;8.40;;
19026;SDS011;9646;52.034;5.554;2022-11-11T09:53:31;9.15;;;7.40;;
19026;SDS011;9646;52.034;5.554;2022-11-11T09:56:00;11.55;;;8.50;;
19026;SDS011;9646;52.034;5.554;2022-11-11T09:58:28;11.60;;;8.80;;
19026;SDS011;9646;52.034;5.554;2022-11-11T10:00:58;11.90;;;9.13;;
19026;SDS011;9646;52.034;5.554;2022-11-11T10:03:26;9.70;;;7.35;;
19026;SDS011;9646;52.034;5.554;2022-11-11T10:05:56;10.20;;;8.10;;
19026;SDS011;9646;52.034;5.554;2022-11-11T10:08:27;10.38;;;8.07;;
19026;SDS011;9646;52.034;5.554;2022-11-11T10:10:57;12.20;;;7.75;;
19026;SDS011;9646;52.034;5.554;2022-11-11T10:13:26;12.25;;;8.45;;
19026;SDS011;9646;52.034;5.554;2022-11-11T10:15:56;13.15;;;8.23;;
19026;SDS011;9646;52.034;5.554;2022-11-11T10:18:27;10.90;;;8.02;;
19026;SDS011;9646;52.034;5.554;2022-11-11T10:20:57;9.93;;;7.80;;
19026;SDS011;9646;52.034;5.554;2022-11-11T10:23:28;13.98;;;7.88;;
19026;SDS011;9646;52.034;5.554;2022-11-11T10:25:56;8.35;;;6.53;;
19026;SDS011;9646;52.034;5.554;2022-11-11T10:28:25;11.45;;;8.93;;
19026;SDS011;9646;52.034;5.554;2022-11-11T10:30:54;10.35;;;6.82;;
19026;SDS011;9646;52.034;5.554;2022-11-11T10:33:22;10.77;;;8.20;;
19026;SDS011;9646;52.034;5.554;2022-11-11T10:35:50;11.00;;;8.10;;
19026;SDS011;9646;52.034;5.554;2022-11-11T10:38:22;9.95;;;6.70;;
19026;SDS011;9646;52.034;5.554;2022-11-11T10:40:53;10.35;;;7.55;;
19026;SDS011;9646;52.034;5.554;2022-11-11T10:43:22;10.18;;;7.50;;
19026;SDS011;9646;52.034;5.554;2022-11-11T10:45:52;12.23;;;8.57;;
19026;SDS011;9646;52.034;5.554;2022-11-11T10:48:21;8.88;;;7.88;;
19026;SDS011;9646;52.034;5.554;2022-11-11T10:50:50;11.00;;;7.82;;
19026;SDS011;9646;52.034;5.554;2022-11-11T10:53:19;10.50;;;8.00;;
19026;SDS011;9646;52.034;5.554;2022-11-11T10:55:50;12.40;;;7.53;;
19026;SDS011;9646;52.034;5.554;2022-11-11T10:58:21;11.10;;;8.10;;
19026;SDS011;9646;52.034;5.554;2022-11-11T11:00:51;11.10;;;7.80;;
19026;SDS011;9646;52.034;5.554;2022-11-11T11:03:20;10.20;;;7.28;;
19026;SDS011;9646;52.034;5.554;2022-11-11T11:05:49;13.02;;;8.63;;
19026;SDS011;9646;52.034;5.554;2022-11-11T11:08:19;10.13;;;7.45;;
19026;SDS011;9646;52.034;5.554;2022-11-11T11:10:48;10.65;;;7.93;;
19026;SDS011;9646;52.034;5.554;2022-11-11T11:13:20;13.43;;;8.18;;
19026;SDS011;9646;52.034;5.554;2022-11-11T11:15:53;13.30;;;7.90;;
19026;SDS011;9646;52.034;5.554;2022-11-11T11:18:20;10.02;;;6.55;;
19026;SDS011;9646;52.034;5.554;2022-11-11T11:20:54;13.45;;;8.07;;
19026;SDS011;9646;52.034;5.554;2022-11-11T11:23:32;10.70;;;7.40;;
19026;SDS011;9646;52.034;5.554;2022-11-11T11:26:00;10.43;;;7.95;;
19026;SDS011;9646;52.034;5.554;2022-11-11T11:28:28;10.70;;;7.47;;
19026;SDS011;9646;52.034;5.554;2022-11-11T11:31:01;10.32;;;7.10;;
19026;SDS011;9646;52.034;5.554;2022-11-11T11:33:35;11.57;;;7.88;;
19026;SDS011;9646;52.034;5.554;2022-11-11T11:36:15;10.93;;;8.02;;
19026;SDS011;9646;52.034;5.554;2022-11-11T11:38:43;10.85;;;7.45;;
19026;SDS011;9646;52.034;5.554;2022-11-11T11:41:11;8.85;;;6.72;;
19026;SDS011;9646;52.034;5.554;2022-11-11T11:43:39;11.15;;;8.07;;
19026;SDS011;9646;52.034;5.554;2022-11-11T11:46:15;13.98;;;9.20;;
19026;SDS011;9646;52.034;5.554;2022-11-11T11:51:27;12.43;;;8.90;;
19026;SDS011;9646;52.034;5.554;2022-11-11T11:56:44;10.40;;;8.05;;
19026;SDS011;9646;52.034;5.554;2022-11-11T11:59:12;9.32;;;7.25;;
19026;SDS011;9646;52.034;5.554;2022-11-11T12:01:46;12.98;;;8.40;;
19026;SDS011;9646;52.034;5.554;2022-11-11T12:04:33;12.52;;;8.55;;
19026;SDS011;9646;52.034;5.554;2022-11-11T12:07:10;18.67;;;10.93;;
19026;SDS011;9646;52.034;5.554;2022-11-11T12:09:40;11.50;;;8.05;;
19026;SDS011;9646;52.034;5.554;2022-11-11T12:12:12;12.60;;;8.65;;
19026;SDS011;9646;52.034;5.554;2022-11-11T12:17:39;11.15;;;8.63;;
19026;SDS011;9646;52.034;5.554;2022-11-11T12:20:10;12.93;;;8.07;;
19026;SDS011;9646;52.034;5.554;2022-11-11T12:22:44;10.52;;;8.27;;
19026;SDS011;9646;52.034;5.554;2022-11-11T12:25:16;14.32;;;9.48;;
19026;SDS011;9646;52.034;5.554;2022-11-11T12:27:47;12.95;;;8.48;;
19026;SDS011;9646;52.034;5.554;2022-11-11T12:30:19;11.27;;;7.43;;
19026;SDS011;9646;52.034;5.554;2022-11-11T12:32:58;11.07;;;8.30;;
19026;SDS011;9646;52.034;5.554;2022-11-11T12:35:32;12.20;;;7.85;;
19026;SDS011;9646;52.034;5.554;2022-11-11T12:38:02;15.95;;;8.13;;
19026;SDS011;9646;52.034;5.554;2022-11-11T12:40:34;13.38;;;8.60;;
19026;SDS011;9646;52.034;5.554;2022-11-11T12:43:05;16.33;;;8.63;;
19026;SDS011;9646;52.034;5.554;2022-11-11T12:45:35;21.02;;;12.13;;
19026;SDS011;9646;52.034;5.554;2022-11-11T12:50:52;11.65;;;7.75;;
19026;SDS011;9646;52.034;5.554;2022-11-11T12:53:23;14.38;;;8.00;;
19026;SDS011;9646;52.034;5.554;2022-11-11T12:55:57;12.15;;;7.88;;
19026;SDS011;9646;52.034;5.554;2022-11-11T12:58:28;11.57;;;7.75;;
19026;SDS011;9646;52.034;5.554;2022-11-11T13:01:02;11.85;;;7.97;;
19026;SDS011;9646;52.034;5.554;2022-11-11T13:03:50;11.35;;;6.85;;
19026;SDS011;9646;52.034;5.554;2022-11-11T13:06:26;12.30;;;7.63;;
19026;SDS011;9646;52.034;5.554;2022-11-11T13:09:00;12.25;;;6.90;;
19026;SDS011;9646;52.034;5.554;2022-11-11T13:11:32;12.40;;;7.53;;
19026;SDS011;9646;52.034;5.554;2022-11-11T13:14:06;13.35;;;6.70;;
19026;SDS011;9646;52.034;5.554;2022-11-11T13:16:36;10.13;;;6.13;;
19026;SDS011;9646;52.034;5.554;2022-11-11T13:19:03;9.60;;;7.20;;
19026;SDS011;9646;52.034;5.554;2022-11-11T13:21:35;13.40;;;7.47;;
19026;SDS011;9646;52.034;5.554;2022-11-11T13:24:07;9.70;;;6.13;;
19026;SDS011;9646;52.034;5.554;2022-11-11T13:26:36;14.50;;;7.07;;
19026;SDS011;9646;52.034;5.554;2022-11-11T13:29:14;9.48;;;6.47;;
19026;SDS011;9646;52.034;5.554;2022-11-11T13:31:44;10.27;;;6.97;;
19026;SDS011;9646;52.034;5.554;2022-11-11T13:34:13;9.80;;;5.65;;
19026;SDS011;9646;52.034;5.554;2022-11-11T13:36:43;8.77;;;6.55;;
19026;SDS011;9646;52.034;5.554;2022-11-11T13:39:20;8.30;;;5.38;;
19026;SDS011;9646;52.034;5.554;2022-11-11T13:41:48;9.15;;;6.30;;
19026;SDS011;9646;52.034;5.554;2022-11-11T13:44:18;9.13;;;5.63;;
19026;SDS011;9646;52.034;5.554;2022-11-11T13:46:48;8.77;;;5.25;;
19026;SDS011;9646;52.034;5.554;2022-11-11T13:49:20;9.20;;;5.57;;
19026;SDS011;9646;52.034;5.554;2022-11-11T13:51:57;11.43;;;6.68;;
19026;SDS011;9646;52.034;5.554;2022-11-11T13:54:25;8.38;;;5.88;;
19026;SDS011;9646;52.034;5.554;2022-11-11T13:56:53;9.45;;;6.35;;
19026;SDS011;9646;52.034;5.554;2022-11-11T13:59:28;8.80;;;5.32;;
19026;SDS011;9646;52.034;5.554;2022-11-11T14:07:50;8.30;;;5.55;;
19026;SDS011;9646;52.034;5.554;2022-11-11T14:15:48;17.00;;;6.65;;
19026;SDS011;9646;52.034;5.554;2022-11-11T14:18:31;8.57;;;6.18;;
19026;SDS011;9646;52.034;5.554;2022-11-11T14:20:59;9.13;;;5.95;;
19026;SDS011;9646;52.034;5.554;2022-11-11T14:23:31;8.18;;;5.20;;
19026;SDS011;9646;52.034;5.554;2022-11-11T14:26:15;7.85;;;6.00;;
19026;SDS011;9646;52.034;5.554;2022-11-11T14:28:49;8.60;;;5.88;;
19026;SDS011;9646;52.034;5.554;2022-11-11T14:31:25;9.52;;;6.68;;
19026;SDS011;9646;52.034;5.554;2022-11-11T14:33:58;7.68;;;5.32;;
19026;SDS011;9646;52.034;5.554;2022-11-11T14:36:28;9.95;;;6.38;;
19026;SDS011;9646;52.034;5.554;2022-11-11T14:39:00;9.82;;;5.78;;
19026;SDS011;9646;52.034;5.554;2022-11-11T14:41:45;7.80;;;4.57;;
19026;SDS011;9646;52.034;5.554;2022-11-11T14:49:44;6.75;;;5.57;;
19026;SDS011;9646;52.034;5.554;2022-11-11T14:52:13;8.13;;;5.07;;
19026;SDS011;9646;52.034;5.554;2022-11-11T14:54:50;10.68;;;6.88;;
19026;SDS011;9646;52.034;5.554;2022-11-11T14:57:20;8.35;;;5.18;;
19026;SDS011;9646;52.034;5.554;2022-11-11T14:59:48;8.90;;;5.53;;
19026;SDS011;9646;52.034;5.554;2022-11-11T15:02:26;8.65;;;5.90;;
19026;SDS011;9646;52.034;5.554;2022-11-11T15:04:56;8.07;;;4.75;;
19026;SDS011;9646;52.034;5.554;2022-11-11T15:07:26;5.80;;;4.30;;
19026;SDS011;9646;52.034;5.554;2022-11-11T15:12:56;8.68;;;5.07;;
19026;SDS011;9646;52.034;5.554;2022-11-11T15:15:28;8.32;;;5.47;;
19026;SDS011;9646;52.034;5.554;2022-11-11T15:18:01;6.28;;;4.55;;
19026;SDS011;9646;52.034;5.554;2022-11-11T15:20:40;9.50;;;4.68;;
19026;SDS011;9646;52.034;5.554;2022-11-11T15:23:11;10.55;;;7.50;;
19026;SDS011;9646;52.034;5.554;2022-11-11T15:25:43;16.42;;;10.32;;
19026;SDS011;9646;52.034;5.554;2022-11-11T15:28:15;12.55;;;10.05;;
19026;SDS011;9646;52.034;5.554;2022-11-11T15:30:55;8.77;;;6.28;;
19026;SDS011;9646;52.034;5.554;2022-11-11T15:33:25;9.23;;;5.40;;
19026;SDS011;9646;52.034;5.554;2022-11-11T15:35:56;6.57;;;5.32;;
19026;SDS011;9646;52.034;5.554;2022-11-11T15:38:24;9.57;;;5.60;;
19026;SDS011;9646;52.034;5.554;2022-11-11T15:40:52;6.38;;;4.80;;
19026;SDS011;9646;52.034;5.554;2022-11-11T15:43:24;9.27;;;7.00;;